createdAt,value
2018-05-21T00:00:40.285Z,1009.31
2018-05-21T00:01:40.261Z,1009.27
2018-05-21T00:02:40.188Z,1009.30
2018-05-21T00:03:40.142Z,1009.31
2018-05-21T00:04:40.097Z,1009.31
2018-05-21T00:05:40.049Z,1009.29
2018-05-21T00:06:40.024Z,1009.26
2018-05-21T00:07:39.961Z,1009.31
2018-05-21T00:08:39.910Z,1009.27
2018-05-21T00:09:39.865Z,1009.32
2018-05-21T00:10:39.818Z,1009.30
2018-05-21T00:11:39.793Z,1009.29
2018-05-21T00:12:39.721Z,1009.26
2018-05-21T00:13:39.677Z,1009.25
2018-05-21T00:14:39.636Z,1009.31
2018-05-21T00:15:39.588Z,1009.33
2018-05-21T00:16:39.566Z,1009.28
2018-05-21T00:17:39.492Z,1009.27
2018-05-21T00:18:39.452Z,1009.30
2018-05-21T00:19:39.408Z,1009.24
2018-05-21T00:20:39.354Z,1009.30
2018-05-21T00:21:39.330Z,1009.26
2018-05-21T00:22:39.254Z,1009.20
2018-05-21T00:23:39.219Z,1009.25
2018-05-21T00:24:39.163Z,1009.25
2018-05-21T00:25:39.123Z,1009.21
2018-05-21T00:26:39.098Z,1009.16
2018-05-21T00:27:39.029Z,1009.17
2018-05-21T00:28:38.978Z,1009.18
2018-05-21T00:29:38.931Z,1009.22
2018-05-21T00:30:38.885Z,1009.14
2018-05-21T00:31:38.864Z,1009.13
2018-05-21T00:32:38.795Z,1009.07
2018-05-21T00:33:38.750Z,1009.10
2018-05-21T00:34:38.702Z,1009.12
2018-05-21T00:35:38.652Z,1009.11
2018-05-21T00:36:38.639Z,1009.15
2018-05-21T00:37:38.563Z,1009.13
2018-05-21T00:38:38.514Z,1009.17
2018-05-21T00:39:38.468Z,1009.13
2018-05-21T00:40:38.420Z,1009.09
2018-05-21T00:41:38.372Z,1009.08
2018-05-21T00:42:38.349Z,1009.13
2018-05-21T00:43:38.284Z,1009.08
2018-05-21T00:44:38.238Z,1009.12
2018-05-21T00:45:38.187Z,1009.15
2018-05-21T00:46:38.141Z,1009.10
2018-05-21T00:47:38.121Z,1009.03
2018-05-21T00:48:38.065Z,1009.11
2018-05-21T00:49:38.002Z,1009.07
2018-05-21T00:50:37.952Z,1009.07
2018-05-21T00:51:37.909Z,1009.10
2018-05-21T00:52:37.886Z,1009.06
2018-05-21T00:53:37.816Z,1009.08
2018-05-21T00:54:37.767Z,1009.11
2018-05-21T00:55:37.721Z,1009.08
2018-05-21T00:56:37.705Z,1009.12
2018-05-21T00:57:37.654Z,1009.07
2018-05-21T00:58:37.589Z,1009.06
2018-05-21T00:59:37.534Z,1009.09
2018-05-21T01:00:37.486Z,1009.08
2018-05-21T01:01:37.444Z,1009.09
2018-05-21T01:02:37.420Z,1009.07
2018-05-21T01:03:37.350Z,1009.12
2018-05-21T01:04:37.302Z,1009.05
2018-05-21T01:05:37.258Z,1009.04
2018-05-21T01:06:37.206Z,1009.06
2018-05-21T01:07:37.184Z,1009.09
2018-05-21T01:08:37.119Z,1009.07
2018-05-21T01:09:37.072Z,1009.04
2018-05-21T01:10:37.024Z,1008.99
2018-05-21T01:11:36.979Z,1009.02
2018-05-21T01:12:36.956Z,1009.03
2018-05-21T01:13:36.887Z,1008.99
2018-05-21T01:14:36.837Z,1009.01
2018-05-21T01:15:36.804Z,1009.07
2018-05-21T01:16:36.743Z,1009.07
2018-05-21T01:17:36.718Z,1008.98
2018-05-21T01:18:36.651Z,1009.05
2018-05-21T01:19:36.605Z,1008.99
2018-05-21T01:20:36.556Z,1009.05
2018-05-21T01:21:36.513Z,1009.07
2018-05-21T01:22:36.493Z,1009.04
2018-05-21T01:23:36.419Z,1009.06
2018-05-21T01:24:36.370Z,1009.01
2018-05-21T01:25:36.327Z,1009.08
2018-05-21T01:26:36.281Z,1009.03
2018-05-21T01:27:36.254Z,1009.04
2018-05-21T01:28:36.182Z,1009.07
2018-05-21T01:29:36.139Z,1009.06
2018-05-21T01:30:36.090Z,1009.09
2018-05-21T01:31:36.044Z,1009.08
2018-05-21T01:32:36.020Z,1009.07
2018-05-21T01:33:35.951Z,1009.13
2018-05-21T01:34:35.901Z,1009.05
2018-05-21T01:35:35.857Z,1009.07
2018-05-21T01:36:35.812Z,1009.02
2018-05-21T01:37:35.785Z,1009.03
2018-05-21T01:38:35.714Z,1009.02
2018-05-21T01:39:35.670Z,1009.03
2018-05-21T01:40:35.627Z,1009.04
2018-05-21T01:41:35.580Z,1009.07
2018-05-21T01:42:35.554Z,1009.00
2018-05-21T01:43:35.483Z,1008.98
2018-05-21T01:44:35.438Z,1008.98
2018-05-21T01:45:35.395Z,1008.98
2018-05-21T01:46:35.344Z,1008.97
2018-05-21T01:47:35.319Z,1008.95
2018-05-21T01:48:35.278Z,1008.96
2018-05-21T01:49:35.207Z,1008.91
2018-05-21T01:50:35.159Z,1008.93
2018-05-21T01:51:35.115Z,1008.91
2018-05-21T01:52:35.087Z,1008.93
2018-05-21T01:53:35.017Z,1008.92
2018-05-21T01:54:34.971Z,1008.93
2018-05-21T01:55:34.924Z,1008.88
2018-05-21T01:56:34.876Z,1008.89
2018-05-21T01:57:34.855Z,1008.88
2018-05-21T01:58:34.781Z,1008.91
2018-05-21T01:59:34.740Z,1008.85
2018-05-21T02:00:34.691Z,1008.88
2018-05-21T02:01:34.726Z,1008.89
2018-05-21T02:02:34.619Z,1008.88
2018-05-21T02:03:34.545Z,1008.83
2018-05-21T02:04:34.585Z,1008.83
2018-05-21T02:05:34.458Z,1008.86
2018-05-21T02:06:34.411Z,1008.82
2018-05-21T02:07:34.384Z,1008.82
2018-05-21T02:08:34.380Z,1008.81
2018-05-21T02:09:34.268Z,1008.81
2018-05-21T02:10:34.222Z,1008.75
2018-05-21T02:11:34.171Z,1008.75
2018-05-21T02:12:34.149Z,1008.77
2018-05-21T02:13:34.080Z,1008.75
2018-05-21T02:14:34.031Z,1008.75
2018-05-21T02:15:33.981Z,1008.74
2018-05-21T02:16:33.939Z,1008.72
2018-05-21T02:17:33.915Z,1008.74
2018-05-21T02:18:33.850Z,1008.83
2018-05-21T02:19:33.797Z,1008.71
2018-05-21T02:20:33.749Z,1008.77
2018-05-21T02:21:33.704Z,1008.72
2018-05-21T02:22:33.681Z,1008.68
2018-05-21T02:23:33.615Z,1008.66
2018-05-21T02:24:33.563Z,1008.72
2018-05-21T02:25:33.519Z,1008.73
2018-05-21T02:26:33.477Z,1008.70
2018-05-21T02:27:33.446Z,1008.72
2018-05-21T02:28:33.383Z,1008.73
2018-05-21T02:29:33.326Z,1008.74
2018-05-21T02:30:33.280Z,1008.68
2018-05-21T02:31:33.238Z,1008.69
2018-05-21T02:32:33.209Z,1008.71
2018-05-21T02:33:33.140Z,1008.69
2018-05-21T02:34:33.091Z,1008.72
2018-05-21T02:35:33.041Z,1008.69
2018-05-21T02:36:33.000Z,1008.70
2018-05-21T02:37:32.971Z,1008.66
2018-05-21T02:38:32.913Z,1008.70
2018-05-21T02:39:32.860Z,1008.69
2018-05-21T02:40:32.812Z,1008.65
2018-05-21T02:41:32.760Z,1008.65
2018-05-21T02:42:32.740Z,1008.62
2018-05-21T02:43:32.669Z,1008.65
2018-05-21T02:44:32.620Z,1008.63
2018-05-21T02:45:32.576Z,1008.61
2018-05-21T02:46:32.525Z,1008.61
2018-05-21T02:47:32.504Z,1008.63
2018-05-21T02:48:32.433Z,1008.56
2018-05-21T02:49:32.387Z,1008.58
2018-05-21T02:50:32.338Z,1008.52
2018-05-21T02:51:32.292Z,1008.55
2018-05-21T02:52:32.273Z,1008.50
2018-05-21T02:53:32.197Z,1008.44
2018-05-21T02:54:32.152Z,1008.50
2018-05-21T02:55:32.102Z,1008.45
2018-05-21T02:56:32.055Z,1008.49
2018-05-21T02:57:32.033Z,1008.40
2018-05-21T02:58:31.962Z,1008.46
2018-05-21T02:59:31.921Z,1008.41
2018-05-21T03:00:31.870Z,1008.48
2018-05-21T03:01:31.819Z,1008.40
2018-05-21T03:02:31.801Z,1008.42
2018-05-21T03:03:31.729Z,1008.41
2018-05-21T03:04:31.680Z,1008.40
2018-05-21T03:05:31.632Z,1008.42
2018-05-21T03:06:31.586Z,1008.43
2018-05-21T03:07:31.563Z,1008.37
2018-05-21T03:08:31.492Z,1008.40
2018-05-21T03:09:31.447Z,1008.43
2018-05-21T03:10:31.397Z,1008.34
2018-05-21T03:11:31.351Z,1008.37
2018-05-21T03:12:31.325Z,1008.40
2018-05-21T03:13:31.253Z,1008.35
2018-05-21T03:14:31.209Z,1008.31
2018-05-21T03:15:31.157Z,1008.37
2018-05-21T03:16:31.117Z,1008.35
2018-05-21T03:17:31.095Z,1008.27
2018-05-21T03:18:31.017Z,1008.30
2018-05-21T03:19:30.973Z,1008.33
2018-05-21T03:20:30.944Z,1008.37
2018-05-21T03:21:30.882Z,1008.34
2018-05-21T03:22:30.861Z,1008.30
2018-05-21T03:23:30.784Z,1008.34
2018-05-21T03:24:30.735Z,1008.35
2018-05-21T03:25:30.691Z,1008.34
2018-05-21T03:26:30.643Z,1008.34
2018-05-21T03:27:30.617Z,1008.35
2018-05-21T03:28:30.551Z,1008.34
2018-05-21T03:29:30.505Z,1008.36
2018-05-21T03:30:30.454Z,1008.38
2018-05-21T03:31:30.412Z,1008.38
2018-05-21T03:32:30.360Z,1008.34
2018-05-21T03:33:30.343Z,1008.35
2018-05-21T03:34:30.265Z,1008.32
2018-05-21T03:35:30.217Z,1008.29
2018-05-21T03:36:30.180Z,1008.29
2018-05-21T03:37:30.120Z,1008.30
2018-05-21T03:38:30.103Z,1008.23
2018-05-21T03:39:30.028Z,1008.29
2018-05-21T03:40:29.981Z,1008.30
2018-05-21T03:41:29.932Z,1008.29
2018-05-21T03:42:29.887Z,1008.26
2018-05-21T03:43:29.863Z,1008.27
2018-05-21T03:44:29.805Z,1008.32
2018-05-21T03:45:29.747Z,1008.27
2018-05-21T03:46:29.697Z,1008.29
2018-05-21T03:47:29.651Z,1008.27
2018-05-21T03:48:29.628Z,1008.24
2018-05-21T03:49:29.556Z,1008.25
2018-05-21T03:50:29.511Z,1008.26
2018-05-21T03:51:29.463Z,1008.19
2018-05-21T03:52:29.412Z,1008.25
2018-05-21T03:53:29.399Z,1008.22
2018-05-21T03:54:29.318Z,1008.15
2018-05-21T03:55:29.267Z,1008.19
2018-05-21T03:56:29.224Z,1008.20
2018-05-21T03:57:29.178Z,1008.22
2018-05-21T03:58:29.152Z,1008.25
2018-05-21T03:59:29.081Z,1008.18
2018-05-21T04:00:29.032Z,1008.21
2018-05-21T04:01:28.991Z,1008.18
2018-05-21T04:02:28.937Z,1008.20
2018-05-21T04:03:28.918Z,1008.17
2018-05-21T04:04:28.910Z,1008.18
2018-05-21T04:05:28.801Z,1008.18
2018-05-21T04:06:28.751Z,1008.20
2018-05-21T04:07:28.704Z,1008.18
2018-05-21T04:08:28.684Z,1008.18
2018-05-21T04:09:28.609Z,1008.22
2018-05-21T04:10:28.563Z,1008.20
2018-05-21T04:11:28.517Z,1008.19
2018-05-21T04:12:28.512Z,1008.21
2018-05-21T04:13:28.447Z,1008.20
2018-05-21T04:14:28.376Z,1008.17
2018-05-21T04:15:28.328Z,1008.18
2018-05-21T04:16:28.280Z,1008.19
2018-05-21T04:17:28.236Z,1008.22
2018-05-21T04:18:28.208Z,1008.18
2018-05-21T04:19:28.141Z,1008.17
2018-05-21T04:20:28.090Z,1008.23
2018-05-21T04:21:28.043Z,1008.18
2018-05-21T04:22:27.998Z,1008.18
2018-05-21T04:23:27.973Z,1008.18
2018-05-21T04:24:27.901Z,1008.14
2018-05-21T04:25:27.928Z,1008.14
2018-05-21T04:26:27.808Z,1008.17
2018-05-21T04:27:27.761Z,1008.14
2018-05-21T04:28:27.739Z,1008.16
2018-05-21T04:29:27.668Z,1008.19
2018-05-21T04:30:27.622Z,1008.17
2018-05-21T04:31:27.590Z,1008.18
2018-05-21T04:32:27.527Z,1008.20
2018-05-21T04:33:27.508Z,1008.23
2018-05-21T04:34:27.436Z,1008.19
2018-05-21T04:35:27.385Z,1008.24
2018-05-21T04:36:27.379Z,1008.16
2018-05-21T04:37:27.295Z,1008.18
2018-05-21T04:38:27.267Z,1008.20
2018-05-21T04:39:27.199Z,1008.20
2018-05-21T04:40:27.229Z,1008.17
2018-05-21T04:41:27.110Z,1008.18
2018-05-21T04:42:27.058Z,1008.16
2018-05-21T04:43:27.034Z,1008.19
2018-05-21T04:44:26.969Z,1008.19
2018-05-21T04:45:26.923Z,1008.16
2018-05-21T04:46:26.871Z,1008.13
2018-05-21T04:47:26.825Z,1008.18
2018-05-21T04:48:26.804Z,1008.16
2018-05-21T04:49:26.734Z,1008.12
2018-05-21T04:50:26.687Z,1008.17
2018-05-21T04:51:26.647Z,1008.20
2018-05-21T04:52:26.598Z,1008.22
2018-05-21T04:53:26.569Z,1008.22
2018-05-21T04:54:26.501Z,1008.20
2018-05-21T04:55:26.457Z,1008.16
2018-05-21T04:56:26.409Z,1008.20
2018-05-21T04:57:26.369Z,1008.17
2018-05-21T04:58:26.341Z,1008.22
2018-05-21T04:59:26.268Z,1008.16
2018-05-21T05:00:26.223Z,1008.16
2018-05-21T05:01:26.178Z,1008.15
2018-05-21T05:02:26.127Z,1008.10
2018-05-21T05:03:26.105Z,1008.14
2018-05-21T05:04:26.037Z,1008.13
2018-05-21T05:05:25.991Z,1008.12
2018-05-21T05:06:25.945Z,1008.12
2018-05-21T05:07:25.899Z,1008.06
2018-05-21T05:08:25.882Z,1008.10
2018-05-21T05:09:25.808Z,1008.10
2018-05-21T05:10:25.760Z,1008.10
2018-05-21T05:11:25.714Z,1008.10
2018-05-21T05:12:25.669Z,1008.10
2018-05-21T05:13:25.650Z,1008.17
2018-05-21T05:14:25.583Z,1008.13
2018-05-21T05:15:25.530Z,1008.13
2018-05-21T05:16:25.485Z,1008.18
2018-05-21T05:17:25.442Z,1008.19
2018-05-21T05:18:25.415Z,1008.16
2018-05-21T05:19:25.347Z,1008.20
2018-05-21T05:20:25.300Z,1008.22
2018-05-21T05:21:25.260Z,1008.21
2018-05-21T05:22:25.212Z,1008.24
2018-05-21T05:23:25.190Z,1008.29
2018-05-21T05:24:25.119Z,1008.23
2018-05-21T05:25:25.071Z,1008.20
2018-05-21T05:26:25.104Z,1008.16
2018-05-21T05:27:24.984Z,1008.22
2018-05-21T05:28:24.983Z,1008.17
2018-05-21T05:29:24.895Z,1008.15
2018-05-21T05:30:24.842Z,1008.14
2018-05-21T05:31:24.796Z,1008.27
2018-05-21T05:32:24.747Z,1008.19
2018-05-21T05:33:24.709Z,1008.15
2018-05-21T05:34:24.695Z,1008.14
2018-05-21T05:35:24.618Z,1008.10
2018-05-21T05:36:24.570Z,1008.15
2018-05-21T05:37:24.532Z,1008.13
2018-05-21T05:38:24.481Z,1008.15
2018-05-21T05:39:24.461Z,1008.13
2018-05-21T05:40:24.391Z,1008.15
2018-05-21T05:41:32.001Z,1008.17
2018-05-21T05:42:24.302Z,1008.16
2018-05-21T05:43:24.251Z,1008.18
2018-05-21T05:44:24.246Z,1008.15
2018-05-21T05:45:24.163Z,1008.12
2018-05-21T05:46:24.122Z,1008.17
2018-05-21T05:47:24.075Z,1008.19
2018-05-21T05:48:24.026Z,1008.19
2018-05-21T05:49:24.003Z,1008.15
2018-05-21T05:50:23.936Z,1008.13
2018-05-21T05:51:23.892Z,1008.14
2018-05-21T05:52:23.845Z,1008.17
2018-05-21T05:53:23.800Z,1008.18
2018-05-21T05:54:23.774Z,1008.12
2018-05-21T05:55:23.711Z,1008.11
2018-05-21T05:56:23.668Z,1008.16
2018-05-21T05:57:23.619Z,1008.16
2018-05-21T05:58:23.571Z,1008.16
2018-05-21T05:59:23.552Z,1008.15
2018-05-21T06:00:23.483Z,1008.17
2018-05-21T06:01:23.439Z,1008.18
2018-05-21T06:02:23.395Z,1008.16
2018-05-21T06:03:23.349Z,1008.19
2018-05-21T06:04:23.328Z,1008.14
2018-05-21T06:05:23.264Z,1008.09
2018-05-21T06:06:23.217Z,1008.12
2018-05-21T06:07:23.177Z,1008.12
2018-05-21T06:08:23.128Z,1008.10
2018-05-21T06:09:23.104Z,1008.12
2018-05-21T06:10:23.034Z,1008.10
2018-05-21T06:11:22.991Z,1008.13
2018-05-21T06:12:22.945Z,1008.10
2018-05-21T06:13:22.900Z,1008.08
2018-05-21T06:14:22.878Z,1008.08
2018-05-21T06:15:22.811Z,1008.11
2018-05-21T06:16:22.763Z,1008.17
2018-05-21T06:17:22.719Z,1008.10
2018-05-21T06:18:22.671Z,1008.11
2018-05-21T06:19:22.655Z,1008.05
2018-05-21T06:20:22.586Z,1008.07
2018-05-21T06:21:22.538Z,1008.07
2018-05-21T06:22:22.497Z,1008.02
2018-05-21T06:23:22.450Z,1008.00
2018-05-21T06:24:22.428Z,1008.00
2018-05-21T06:25:22.359Z,1008.01
2018-05-21T06:26:22.316Z,1007.99
2018-05-21T06:27:22.269Z,1008.00
2018-05-21T06:28:22.227Z,1008.03
2018-05-21T06:29:22.208Z,1008.01
2018-05-21T06:30:22.172Z,1008.03
2018-05-21T06:31:22.088Z,1008.01
2018-05-21T06:32:22.048Z,1007.97
2018-05-21T06:33:22.000Z,1007.96
2018-05-21T06:34:22.323Z,1007.94
2018-05-21T06:35:21.910Z,1007.91
2018-05-21T06:36:21.868Z,1007.87
2018-05-21T06:37:21.821Z,1007.85
2018-05-21T06:38:21.780Z,1007.89
2018-05-21T06:39:21.757Z,1007.91
2018-05-21T06:40:21.689Z,1007.92
2018-05-21T06:41:21.644Z,1007.95
2018-05-21T06:42:21.600Z,1007.92
2018-05-21T06:43:21.559Z,1007.91
2018-05-21T06:44:21.533Z,1007.92
2018-05-21T06:45:21.467Z,1007.88
2018-05-21T06:46:21.425Z,1007.89
2018-05-21T06:47:21.380Z,1007.91
2018-05-21T06:48:21.337Z,1007.90
2018-05-21T06:49:21.321Z,1007.93
2018-05-21T06:50:21.244Z,1007.94
2018-05-21T06:51:21.203Z,1007.91
2018-05-21T06:52:21.158Z,1007.90
2018-05-21T06:53:21.118Z,1007.94
2018-05-21T06:54:21.125Z,1007.97
2018-05-21T06:55:21.026Z,1007.96
2018-05-21T06:56:20.983Z,1007.91
2018-05-21T06:57:20.937Z,1007.91
2018-05-21T06:58:20.894Z,1007.95
2018-05-21T06:59:20.878Z,1007.99
2018-05-21T07:00:20.805Z,1007.95
2018-05-21T07:01:20.762Z,1007.97
2018-05-21T07:02:20.716Z,1007.95
2018-05-21T07:03:20.675Z,1007.91
2018-05-21T07:04:20.649Z,1007.90
2018-05-21T07:05:20.590Z,1007.90
2018-05-21T07:06:20.543Z,1007.89
2018-05-21T07:07:20.496Z,1007.89
2018-05-21T07:08:20.452Z,1007.91
2018-05-21T07:09:20.435Z,1007.93
2018-05-21T07:10:20.374Z,1007.91
2018-05-21T07:11:20.326Z,1007.88
2018-05-21T07:12:20.280Z,1007.92
2018-05-21T07:13:20.237Z,1007.87
2018-05-21T07:14:20.215Z,1007.87
2018-05-21T07:15:20.146Z,1007.87
2018-05-21T07:16:20.111Z,1007.86
2018-05-21T07:17:20.061Z,1007.87
2018-05-21T07:18:20.095Z,1007.89
2018-05-21T07:19:19.999Z,1007.88
2018-05-21T07:20:19.933Z,1007.87
2018-05-21T07:21:19.884Z,1007.89
2018-05-21T07:22:19.844Z,1007.89
2018-05-21T07:23:19.795Z,1007.88
2018-05-21T07:24:19.856Z,1007.88
2018-05-21T07:25:19.708Z,1007.85
2018-05-21T07:26:19.667Z,1007.86
2018-05-21T07:27:19.623Z,1007.84
2018-05-21T07:28:19.671Z,1007.84
2018-05-21T07:29:19.561Z,1007.82
2018-05-21T07:30:19.498Z,1007.82
2018-05-21T07:31:19.453Z,1007.81
2018-05-21T07:32:19.408Z,1007.79
2018-05-21T07:33:19.365Z,1007.77
2018-05-21T07:34:19.344Z,1007.78
2018-05-21T07:35:19.271Z,1007.75
2018-05-21T07:36:19.230Z,1007.77
2018-05-21T07:37:19.190Z,1007.76
2018-05-21T07:38:19.141Z,1007.75
2018-05-21T07:39:19.125Z,1007.78
2018-05-21T07:40:19.062Z,1007.67
2018-05-21T07:41:19.035Z,1007.72
2018-05-21T07:42:18.971Z,1007.70
2018-05-21T07:43:18.930Z,1007.70
2018-05-21T07:44:18.919Z,1007.65
2018-05-21T07:45:18.843Z,1007.64
2018-05-21T07:46:18.795Z,1007.64
2018-05-21T07:47:18.757Z,1007.64
2018-05-21T07:48:18.708Z,1007.62
2018-05-21T07:49:18.690Z,1007.65
2018-05-21T07:50:18.625Z,1007.66
2018-05-21T07:51:18.620Z,1007.65
2018-05-21T07:52:18.537Z,1007.59
2018-05-21T07:53:18.503Z,1007.57
2018-05-21T07:54:18.482Z,1007.56
2018-05-21T07:55:18.411Z,1007.62
2018-05-21T07:56:18.368Z,1007.56
2018-05-21T07:57:18.320Z,1007.55
2018-05-21T07:58:18.368Z,1007.54
2018-05-21T07:59:18.258Z,1007.54
2018-05-21T08:00:18.192Z,1007.58
2018-05-21T08:01:18.146Z,1007.54
2018-05-21T08:02:18.105Z,1007.54
2018-05-21T08:03:18.062Z,1007.55
2018-05-21T08:04:18.043Z,1007.54
2018-05-21T08:05:18.041Z,1007.53
2018-05-21T08:06:17.933Z,1007.54
2018-05-21T08:07:17.889Z,1007.54
2018-05-21T08:08:17.843Z,1007.52
2018-05-21T08:09:17.826Z,1007.56
2018-05-21T08:10:17.760Z,1007.52
2018-05-21T08:11:17.715Z,1007.55
2018-05-21T08:12:17.675Z,1007.54
2018-05-21T08:13:17.629Z,1007.49
2018-05-21T08:14:17.609Z,1007.47
2018-05-21T08:15:17.547Z,1007.51
2018-05-21T08:16:17.504Z,1007.47
2018-05-21T08:17:17.460Z,1007.45
2018-05-21T08:18:17.414Z,1007.44
2018-05-21T08:19:17.371Z,1007.44
2018-05-21T08:20:17.357Z,1007.44
2018-05-21T08:21:17.285Z,1007.39
2018-05-21T08:22:17.329Z,1007.44
2018-05-21T08:23:17.206Z,1007.41
2018-05-21T08:24:17.158Z,1007.39
2018-05-21T08:25:17.143Z,1007.41
2018-05-21T08:26:17.075Z,1007.45
2018-05-21T08:27:17.026Z,1007.46
2018-05-21T08:28:16.987Z,1007.43
2018-05-21T08:29:16.947Z,1007.42
2018-05-21T08:30:16.926Z,1007.37
2018-05-21T08:31:16.861Z,1007.39
2018-05-21T08:32:16.819Z,1007.40
2018-05-21T08:33:16.774Z,1007.38
2018-05-21T08:34:16.727Z,1007.32
2018-05-21T08:35:16.710Z,1007.34
2018-05-21T08:36:16.641Z,1007.37
2018-05-21T08:37:16.600Z,1007.38
2018-05-21T08:38:16.555Z,1007.31
2018-05-21T08:39:16.514Z,1007.37
2018-05-21T08:40:16.500Z,1007.40
2018-05-21T08:41:16.428Z,1007.40
2018-05-21T08:42:16.387Z,1007.37
2018-05-21T08:43:16.346Z,1007.36
2018-05-21T08:44:16.299Z,1007.30
2018-05-21T08:45:16.281Z,1007.34
2018-05-21T08:46:16.241Z,1007.35
2018-05-21T08:47:16.176Z,1007.28
2018-05-21T08:48:16.128Z,1007.28
2018-05-21T08:49:16.085Z,1007.28
2018-05-21T08:50:16.070Z,1007.26
2018-05-21T08:51:16.006Z,1007.25
2018-05-21T08:52:16.010Z,1007.29
2018-05-21T08:53:15.919Z,1007.27
2018-05-21T08:54:15.874Z,1007.26
2018-05-21T08:55:15.945Z,1007.22
2018-05-21T08:56:15.790Z,1007.23
2018-05-21T08:57:15.746Z,1007.22
2018-05-21T08:58:15.709Z,1007.23
2018-05-21T08:59:15.668Z,1007.18
2018-05-21T09:00:15.662Z,1007.20
2018-05-21T09:01:15.577Z,1007.18
2018-05-21T09:02:15.538Z,1007.22
2018-05-21T09:03:15.493Z,1007.23
2018-05-21T09:04:15.589Z,1007.17
2018-05-21T09:05:15.461Z,1007.12
2018-05-21T09:06:15.366Z,1007.19
2018-05-21T09:07:15.329Z,1007.18
2018-05-21T09:08:15.286Z,1007.17
2018-05-21T09:09:15.239Z,1007.19
2018-05-21T09:10:15.221Z,1007.26
2018-05-21T09:11:15.168Z,1007.14
2018-05-21T09:12:15.115Z,1007.19
2018-05-21T09:13:15.073Z,1007.16
2018-05-21T09:14:15.031Z,1007.17
2018-05-21T09:15:15.016Z,1007.09
2018-05-21T09:16:14.948Z,1007.05
2018-05-21T09:17:14.904Z,1007.11
2018-05-21T09:18:14.860Z,1007.14
2018-05-21T09:19:14.822Z,1007.05
2018-05-21T09:20:14.804Z,1007.12
2018-05-21T09:21:14.735Z,1007.10
2018-05-21T09:22:14.692Z,1007.06
2018-05-21T09:23:14.659Z,1007.09
2018-05-21T09:24:14.607Z,1007.00
2018-05-21T09:25:14.591Z,1007.01
2018-05-21T09:26:14.525Z,1007.03
2018-05-21T09:27:14.487Z,1007.01
2018-05-21T09:28:14.441Z,1007.04
2018-05-21T09:29:14.398Z,1006.96
2018-05-21T09:30:14.382Z,1007.05
2018-05-21T09:31:14.398Z,1006.95
2018-05-21T09:32:14.276Z,1006.98
2018-05-21T09:33:14.231Z,1007.02
2018-05-21T09:34:14.212Z,1006.99
2018-05-21T09:35:14.171Z,1006.96
2018-05-21T09:36:14.113Z,1006.95
2018-05-21T09:37:14.065Z,1006.96
2018-05-21T09:38:14.026Z,1006.95
2018-05-21T09:39:13.985Z,1006.96
2018-05-21T09:40:13.973Z,1006.98
2018-05-21T09:41:13.900Z,1006.92
2018-05-21T09:42:13.853Z,1006.94
2018-05-21T09:43:13.819Z,1006.84
2018-05-21T09:44:13.770Z,1006.88
2018-05-21T09:45:13.761Z,1006.82
2018-05-21T09:46:13.689Z,1006.89
2018-05-21T09:47:13.645Z,1006.83
2018-05-21T09:48:13.723Z,1006.85
2018-05-21T09:49:13.568Z,1006.87
2018-05-21T09:50:13.545Z,1006.79
2018-05-21T09:51:13.481Z,1006.77
2018-05-21T09:52:13.438Z,1006.83
2018-05-21T09:53:13.396Z,1006.78
2018-05-21T09:54:13.356Z,1006.80
2018-05-21T09:55:13.337Z,1006.80
2018-05-21T09:56:13.274Z,1006.80
2018-05-21T09:57:13.232Z,1006.74
2018-05-21T09:58:13.183Z,1006.74
2018-05-21T09:59:13.143Z,1006.72
2018-05-21T10:00:13.130Z,1006.74
2018-05-21T10:01:13.063Z,1006.74
2018-05-21T10:02:13.020Z,1006.78
2018-05-21T10:03:12.979Z,1006.71
2018-05-21T10:04:12.944Z,1006.67
2018-05-21T10:05:12.922Z,1006.70
2018-05-21T10:06:12.852Z,1006.64
2018-05-21T10:07:12.813Z,1006.63
2018-05-21T10:08:12.773Z,1006.59
2018-05-21T10:09:12.730Z,1006.62
2018-05-21T10:10:12.713Z,1006.56
2018-05-21T10:11:12.648Z,1006.56
2018-05-21T10:12:12.622Z,1006.57
2018-05-21T10:13:12.559Z,1006.52
2018-05-21T10:14:12.526Z,1006.53
2018-05-21T10:15:12.501Z,1006.66
2018-05-21T10:16:12.438Z,1006.56
2018-05-21T10:17:12.396Z,1006.57
2018-05-21T10:18:12.354Z,1006.66
2018-05-21T10:19:12.313Z,1006.55
2018-05-21T10:20:12.291Z,1006.57
2018-05-21T10:21:12.233Z,1006.58
2018-05-21T10:22:12.188Z,1006.53
2018-05-21T10:23:12.149Z,1006.53
2018-05-21T10:24:12.103Z,1006.54
2018-05-21T10:25:12.092Z,1006.48
2018-05-21T10:26:12.135Z,1006.59
2018-05-21T10:27:11.978Z,1006.51
2018-05-21T10:28:19.628Z,1006.60
2018-05-21T10:29:11.891Z,1006.56
2018-05-21T10:30:11.879Z,1006.46
2018-05-21T10:31:11.815Z,1006.45
2018-05-21T10:32:11.769Z,1006.37
2018-05-21T10:33:11.727Z,1006.41
2018-05-21T10:34:11.687Z,1006.38
2018-05-21T10:35:11.669Z,1006.38
2018-05-21T10:36:11.606Z,1006.40
2018-05-21T10:37:11.672Z,1006.34
2018-05-21T10:38:11.518Z,1006.25
2018-05-21T10:39:11.480Z,1006.17
2018-05-21T10:40:11.474Z,1006.21
2018-05-21T10:41:11.397Z,1006.18
2018-05-21T10:42:11.353Z,1006.24
2018-05-21T10:43:11.310Z,1006.29
2018-05-21T10:44:11.270Z,1006.31
2018-05-21T10:45:11.255Z,1006.43
2018-05-21T10:46:11.184Z,1006.25
2018-05-21T10:47:11.146Z,1006.24
2018-05-21T10:48:11.105Z,1006.16
2018-05-21T10:49:11.066Z,1006.15
2018-05-21T10:50:11.045Z,1006.19
2018-05-21T10:51:11.006Z,1006.13
2018-05-21T10:52:10.943Z,1006.10
2018-05-21T10:53:10.896Z,1006.05
2018-05-21T10:54:10.858Z,1006.04
2018-05-21T10:55:10.815Z,1006.11
2018-05-21T10:56:10.871Z,1006.08
2018-05-21T10:57:10.732Z,1006.07
2018-05-21T10:58:10.690Z,1006.09
2018-05-21T10:59:10.654Z,1006.12
2018-05-21T11:00:10.611Z,1006.04
2018-05-21T11:01:10.593Z,1006.02
2018-05-21T11:02:10.523Z,1006.01
2018-05-21T11:03:10.482Z,1005.98
2018-05-21T11:04:10.442Z,1005.99
2018-05-21T11:05:10.405Z,1006.08
2018-05-21T11:06:10.387Z,1005.97
2018-05-21T11:07:10.318Z,1005.93
2018-05-21T11:08:10.293Z,1005.94
2018-05-21T11:09:10.240Z,1005.91
2018-05-21T11:10:10.194Z,1005.88
2018-05-21T11:11:10.176Z,1005.83
2018-05-21T11:12:10.132Z,1005.83
2018-05-21T11:13:10.074Z,1005.82
2018-05-21T11:14:10.023Z,1005.86
2018-05-21T11:15:09.987Z,1005.85
2018-05-21T11:16:09.972Z,1005.92
2018-05-21T11:17:09.902Z,1005.85
2018-05-21T11:18:09.862Z,1005.80
2018-05-21T11:19:09.816Z,1005.73
2018-05-21T11:20:09.778Z,1005.73
2018-05-21T11:21:09.759Z,1005.72
2018-05-21T11:22:09.691Z,1005.72
2018-05-21T11:23:09.653Z,1005.70
2018-05-21T11:24:09.622Z,1005.69
2018-05-21T11:25:09.568Z,1005.70
2018-05-21T11:26:09.548Z,1005.78
2018-05-21T11:27:09.482Z,1005.71
2018-05-21T11:28:09.446Z,1005.69
2018-05-21T11:29:09.402Z,1005.61
2018-05-21T11:30:09.356Z,1005.61
2018-05-21T11:31:09.345Z,1005.72
2018-05-21T11:32:09.276Z,1005.68
2018-05-21T11:33:09.229Z,1005.59
2018-05-21T11:34:09.187Z,1005.57
2018-05-21T11:35:09.148Z,1005.60
2018-05-21T11:36:09.127Z,1005.59
2018-05-21T11:37:09.068Z,1005.53
2018-05-21T11:38:09.023Z,1005.54
2018-05-21T11:39:08.983Z,1005.53
2018-05-21T11:40:08.939Z,1005.47
2018-05-21T11:41:08.922Z,1005.38
2018-05-21T11:42:08.855Z,1005.47
2018-05-21T11:43:08.814Z,1005.43
2018-05-21T11:44:08.768Z,1005.40
2018-05-21T11:45:08.726Z,1005.45
2018-05-21T11:46:08.704Z,1005.39
2018-05-21T11:47:08.640Z,1005.42
2018-05-21T11:48:08.598Z,1005.38
2018-05-21T11:49:08.553Z,1005.33
2018-05-21T11:50:08.513Z,1005.33
2018-05-21T11:51:08.494Z,1005.31
2018-05-21T11:52:08.429Z,1005.25
2018-05-21T11:53:08.390Z,1005.24
2018-05-21T11:54:08.342Z,1005.29
2018-05-21T11:55:08.308Z,1005.32
2018-05-21T11:56:08.284Z,1005.26
2018-05-21T11:57:08.219Z,1005.27
2018-05-21T11:58:08.174Z,1005.30
2018-05-21T11:59:08.132Z,1005.32
2018-05-21T12:00:08.089Z,1005.22
2018-05-21T12:01:08.085Z,1005.19
2018-05-21T12:02:08.013Z,1005.21
2018-05-21T12:03:07.969Z,1005.16
2018-05-21T12:04:07.924Z,1005.11
2018-05-21T12:05:07.882Z,1005.22